sensor_id;sensor_type;location;lat;lon;timestamp;P1;durP1;ratioP1;P2;durP2;ratioP2
46391;SDS011;32098;49.448;7.904;2023-05-29T00:02:09;6.55;;;3.25;;
46391;SDS011;32098;49.448;7.904;2023-05-29T00:04:35;5.60;;;3.42;;
46391;SDS011;32098;49.448;7.904;2023-05-29T00:07:03;8.63;;;4.03;;
46391;SDS011;32098;49.448;7.904;2023-05-29T00:09:31;6.97;;;4.10;;
46391;SDS011;32098;49.448;7.904;2023-05-29T00:11:57;5.72;;;3.70;;
46391;SDS011;32098;49.448;7.904;2023-05-29T00:14:24;5.18;;;3.45;;
46391;SDS011;32098;49.448;7.904;2023-05-29T00:16:51;6.22;;;3.83;;
46391;SDS011;32098;49.448;7.904;2023-05-29T00:19:18;6.93;;;3.67;;
46391;SDS011;32098;49.448;7.904;2023-05-29T00:21:47;6.80;;;4.28;;
46391;SDS011;32098;49.448;7.904;2023-05-29T00:24:15;6.90;;;4.13;;
46391;SDS011;32098;49.448;7.904;2023-05-29T00:26:42;4.72;;;3.28;;
46391;SDS011;32098;49.448;7.904;2023-05-29T00:29:08;6.70;;;4.05;;
46391;SDS011;32098;49.448;7.904;2023-05-29T00:31:35;5.50;;;3.78;;
46391;SDS011;32098;49.448;7.904;2023-05-29T00:34:04;5.07;;;3.33;;
46391;SDS011;32098;49.448;7.904;2023-05-29T00:36:31;5.50;;;3.40;;
46391;SDS011;32098;49.448;7.904;2023-05-29T00:38:57;4.90;;;3.30;;
46391;SDS011;32098;49.448;7.904;2023-05-29T00:41:24;5.25;;;3.25;;
46391;SDS011;32098;49.448;7.904;2023-05-29T00:43:51;4.28;;;3.70;;
46391;SDS011;32098;49.448;7.904;2023-05-29T00:46:18;6.00;;;3.75;;
46391;SDS011;32098;49.448;7.904;2023-05-29T00:48:47;5.20;;;3.78;;
46391;SDS011;32098;49.448;7.904;2023-05-29T00:51:15;5.70;;;3.50;;
46391;SDS011;32098;49.448;7.904;2023-05-29T00:53:42;8.75;;;3.92;;
46391;SDS011;32098;49.448;7.904;2023-05-29T00:56:10;5.47;;;3.97;;
46391;SDS011;32098;49.448;7.904;2023-05-29T00:58:37;7.38;;;4.07;;
46391;SDS011;32098;49.448;7.904;2023-05-29T01:01:04;7.40;;;4.20;;
46391;SDS011;32098;49.448;7.904;2023-05-29T01:03:31;6.50;;;4.20;;
46391;SDS011;32098;49.448;7.904;2023-05-29T01:05:58;5.00;;;3.53;;
46391;SDS011;32098;49.448;7.904;2023-05-29T01:08:25;5.35;;;3.50;;
46391;SDS011;32098;49.448;7.904;2023-05-29T01:10:52;7.53;;;3.30;;
46391;SDS011;32098;49.448;7.904;2023-05-29T01:13:27;6.07;;;3.63;;
46391;SDS011;32098;49.448;7.904;2023-05-29T01:24:03;5.65;;;3.70;;
46391;SDS011;32098;49.448;7.904;2023-05-29T01:29:42;9.17;;;4.23;;
46391;SDS011;32098;49.448;7.904;2023-05-29T01:32:10;6.63;;;4.03;;
46391;SDS011;32098;49.448;7.904;2023-05-29T01:34:37;6.67;;;3.63;;
46391;SDS011;32098;49.448;7.904;2023-05-29T01:37:03;5.88;;;3.47;;
46391;SDS011;32098;49.448;7.904;2023-05-29T01:39:32;6.75;;;4.05;;
46391;SDS011;32098;49.448;7.904;2023-05-29T01:41:59;7.07;;;3.75;;
46391;SDS011;32098;49.448;7.904;2023-05-29T01:44:28;6.88;;;3.55;;
46391;SDS011;32098;49.448;7.904;2023-05-29T01:46:55;6.03;;;4.00;;
46391;SDS011;32098;49.448;7.904;2023-05-29T01:49:25;5.28;;;3.63;;
46391;SDS011;32098;49.448;7.904;2023-05-29T01:51:54;5.10;;;3.70;;
46391;SDS011;32098;49.448;7.904;2023-05-29T01:54:20;5.20;;;3.88;;
46391;SDS011;32098;49.448;7.904;2023-05-29T01:56:47;6.75;;;4.00;;
46391;SDS011;32098;49.448;7.904;2023-05-29T01:59:15;7.30;;;4.23;;
46391;SDS011;32098;49.448;7.904;2023-05-29T02:01:42;5.22;;;4.07;;
46391;SDS011;32098;49.448;7.904;2023-05-29T02:04:09;5.47;;;3.92;;
46391;SDS011;32098;49.448;7.904;2023-05-29T02:06:36;6.30;;;3.93;;
46391;SDS011;32098;49.448;7.904;2023-05-29T02:09:02;5.33;;;3.90;;
46391;SDS011;32098;49.448;7.904;2023-05-29T02:11:29;6.57;;;4.38;;
46391;SDS011;32098;49.448;7.904;2023-05-29T02:13:56;7.70;;;4.37;;
46391;SDS011;32098;49.448;7.904;2023-05-29T02:16:22;5.93;;;3.93;;
46391;SDS011;32098;49.448;7.904;2023-05-29T02:18:49;5.83;;;4.20;;
46391;SDS011;32098;49.448;7.904;2023-05-29T02:21:16;6.93;;;4.63;;
46391;SDS011;32098;49.448;7.904;2023-05-29T02:23:43;6.47;;;4.70;;
46391;SDS011;32098;49.448;7.904;2023-05-29T02:26:11;6.30;;;4.20;;
46391;SDS011;32098;49.448;7.904;2023-05-29T02:28:38;8.87;;;4.20;;
46391;SDS011;32098;49.448;7.904;2023-05-29T02:31:05;6.43;;;4.70;;
46391;SDS011;32098;49.448;7.904;2023-05-29T02:33:32;6.63;;;4.60;;
46391;SDS011;32098;49.448;7.904;2023-05-29T02:35:58;6.80;;;4.83;;
46391;SDS011;32098;49.448;7.904;2023-05-29T02:38:25;6.83;;;4.53;;
46391;SDS011;32098;49.448;7.904;2023-05-29T02:40:52;8.50;;;4.10;;
46391;SDS011;32098;49.448;7.904;2023-05-29T02:43:21;7.83;;;3.97;;
46391;SDS011;32098;49.448;7.904;2023-05-29T02:45:47;6.27;;;4.40;;
46391;SDS011;32098;49.448;7.904;2023-05-29T02:48:14;7.10;;;4.10;;
46391;SDS011;32098;49.448;7.904;2023-05-29T02:50:41;6.10;;;4.03;;
46391;SDS011;32098;49.448;7.904;2023-05-29T02:53:07;6.80;;;4.03;;
46391;SDS011;32098;49.448;7.904;2023-05-29T02:55:34;7.43;;;4.13;;
46391;SDS011;32098;49.448;7.904;2023-05-29T02:58:02;8.73;;;5.20;;
46391;SDS011;32098;49.448;7.904;2023-05-29T03:00:29;5.67;;;4.90;;
46391;SDS011;32098;49.448;7.904;2023-05-29T03:02:57;7.33;;;5.23;;
46391;SDS011;32098;49.448;7.904;2023-05-29T03:05:24;6.63;;;5.20;;
46391;SDS011;32098;49.448;7.904;2023-05-29T03:07:52;8.13;;;5.27;;
46391;SDS011;32098;49.448;7.904;2023-05-29T03:10:18;7.03;;;5.20;;
46391;SDS011;32098;49.448;7.904;2023-05-29T03:12:45;6.47;;;5.50;;
46391;SDS011;32098;49.448;7.904;2023-05-29T03:15:13;6.03;;;5.00;;
46391;SDS011;32098;49.448;7.904;2023-05-29T03:17:40;8.07;;;5.27;;
46391;SDS011;32098;49.448;7.904;2023-05-29T03:20:12;9.03;;;5.40;;
46391;SDS011;32098;49.448;7.904;2023-05-29T03:22:43;9.40;;;6.30;;
46391;SDS011;32098;49.448;7.904;2023-05-29T03:25:10;8.57;;;5.80;;
46391;SDS011;32098;49.448;7.904;2023-05-29T03:27:36;8.83;;;6.37;;
46391;SDS011;32098;49.448;7.904;2023-05-29T03:30:11;8.43;;;5.50;;
46391;SDS011;32098;49.448;7.904;2023-05-29T03:32:38;7.97;;;5.20;;
46391;SDS011;32098;49.448;7.904;2023-05-29T03:35:05;7.03;;;5.37;;
46391;SDS011;32098;49.448;7.904;2023-05-29T03:37:31;6.20;;;4.90;;
46391;SDS011;32098;49.448;7.904;2023-05-29T03:39:58;8.70;;;5.10;;
46391;SDS011;32098;49.448;7.904;2023-05-29T03:42:24;7.53;;;4.93;;
46391;SDS011;32098;49.448;7.904;2023-05-29T03:44:52;9.47;;;5.40;;
46391;SDS011;32098;49.448;7.904;2023-05-29T03:47:21;6.80;;;4.97;;
46391;SDS011;32098;49.448;7.904;2023-05-29T03:49:49;6.80;;;4.83;;
46391;SDS011;32098;49.448;7.904;2023-05-29T03:52:17;6.40;;;5.20;;
46391;SDS011;32098;49.448;7.904;2023-05-29T03:54:43;6.80;;;5.03;;
46391;SDS011;32098;49.448;7.904;2023-05-29T03:57:11;6.10;;;4.33;;
46391;SDS011;32098;49.448;7.904;2023-05-29T03:59:37;8.17;;;4.77;;
46391;SDS011;32098;49.448;7.904;2023-05-29T04:02:04;6.90;;;4.87;;
46391;SDS011;32098;49.448;7.904;2023-05-29T04:04:30;8.27;;;4.93;;
46391;SDS011;32098;49.448;7.904;2023-05-29T04:06:57;6.70;;;4.70;;
46391;SDS011;32098;49.448;7.904;2023-05-29T04:09:24;10.60;;;5.50;;
46391;SDS011;32098;49.448;7.904;2023-05-29T04:11:51;7.17;;;4.70;;
46391;SDS011;32098;49.448;7.904;2023-05-29T04:14:18;6.37;;;4.60;;
46391;SDS011;32098;49.448;7.904;2023-05-29T04:16:46;6.73;;;5.00;;
46391;SDS011;32098;49.448;7.904;2023-05-29T04:19:12;7.70;;;4.60;;
46391;SDS011;32098;49.448;7.904;2023-05-29T04:21:39;7.57;;;5.43;;
46391;SDS011;32098;49.448;7.904;2023-05-29T04:24:06;7.90;;;5.30;;
46391;SDS011;32098;49.448;7.904;2023-05-29T04:26:32;8.07;;;5.10;;
46391;SDS011;32098;49.448;7.904;2023-05-29T04:28:59;7.43;;;4.43;;
46391;SDS011;32098;49.448;7.904;2023-05-29T04:31:26;7.63;;;4.33;;
46391;SDS011;32098;49.448;7.904;2023-05-29T04:33:54;6.47;;;4.43;;
46391;SDS011;32098;49.448;7.904;2023-05-29T04:36:26;7.87;;;4.33;;
46391;SDS011;32098;49.448;7.904;2023-05-29T04:39:04;8.60;;;4.67;;
46391;SDS011;32098;49.448;7.904;2023-05-29T04:41:32;8.60;;;5.87;;
46391;SDS011;32098;49.448;7.904;2023-05-29T04:44:01;6.27;;;5.00;;
46391;SDS011;32098;49.448;7.904;2023-05-29T04:46:38;7.87;;;5.27;;
46391;SDS011;32098;49.448;7.904;2023-05-29T04:49:05;7.40;;;5.93;;
46391;SDS011;32098;49.448;7.904;2023-05-29T04:51:31;7.70;;;5.55;;
46391;SDS011;32098;49.448;7.904;2023-05-29T04:53:58;8.90;;;5.55;;
46391;SDS011;32098;49.448;7.904;2023-05-29T04:56:25;11.80;;;5.70;;
46391;SDS011;32098;49.448;7.904;2023-05-29T04:58:52;7.43;;;5.32;;
46391;SDS011;32098;49.448;7.904;2023-05-29T05:01:20;7.93;;;4.97;;
46391;SDS011;32098;49.448;7.904;2023-05-29T05:03:47;7.63;;;5.18;;
46391;SDS011;32098;49.448;7.904;2023-05-29T05:06:13;8.30;;;5.95;;
46391;SDS011;32098;49.448;7.904;2023-05-29T05:08:43;8.60;;;5.63;;
46391;SDS011;32098;49.448;7.904;2023-05-29T05:11:09;8.65;;;6.38;;
46391;SDS011;32098;49.448;7.904;2023-05-29T05:13:36;7.57;;;5.80;;
46391;SDS011;32098;49.448;7.904;2023-05-29T05:16:03;7.72;;;6.20;;
46391;SDS011;32098;49.448;7.904;2023-05-29T05:18:30;7.70;;;6.38;;
46391;SDS011;32098;49.448;7.904;2023-05-29T05:21:02;7.53;;;6.38;;
46391;SDS011;32098;49.448;7.904;2023-05-29T05:23:32;7.72;;;6.30;;
46391;SDS011;32098;49.448;7.904;2023-05-29T05:26:14;9.85;;;6.80;;
46391;SDS011;32098;49.448;7.904;2023-05-29T05:28:42;8.63;;;6.97;;
46391;SDS011;32098;49.448;7.904;2023-05-29T05:31:10;8.25;;;6.00;;
46391;SDS011;32098;49.448;7.904;2023-05-29T05:33:37;6.90;;;6.00;;
46391;SDS011;32098;49.448;7.904;2023-05-29T05:36:04;7.68;;;5.72;;
46391;SDS011;32098;49.448;7.904;2023-05-29T05:38:34;7.78;;;5.07;;
46391;SDS011;32098;49.448;7.904;2023-05-29T05:41:00;6.95;;;4.65;;
46391;SDS011;32098;49.448;7.904;2023-05-29T05:43:30;6.25;;;4.80;;
46391;SDS011;32098;49.448;7.904;2023-05-29T05:46:06;6.72;;;4.15;;
46391;SDS011;32098;49.448;7.904;2023-05-29T05:48:35;5.00;;;3.70;;
46391;SDS011;32098;49.448;7.904;2023-05-29T05:51:01;5.13;;;3.80;;
46391;SDS011;32098;49.448;7.904;2023-05-29T05:53:28;5.00;;;2.75;;
46391;SDS011;32098;49.448;7.904;2023-05-29T05:55:56;6.72;;;3.47;;
46391;SDS011;32098;49.448;7.904;2023-05-29T05:58:22;5.60;;;3.38;;
46391;SDS011;32098;49.448;7.904;2023-05-29T06:00:49;7.28;;;3.45;;
46391;SDS011;32098;49.448;7.904;2023-05-29T06:03:19;6.15;;;3.20;;
46391;SDS011;32098;49.448;7.904;2023-05-29T06:05:58;5.55;;;3.20;;
46391;SDS011;32098;49.448;7.904;2023-05-29T06:08:25;5.70;;;3.47;;
46391;SDS011;32098;49.448;7.904;2023-05-29T06:10:52;5.18;;;3.40;;
46391;SDS011;32098;49.448;7.904;2023-05-29T06:13:19;4.57;;;2.88;;
46391;SDS011;32098;49.448;7.904;2023-05-29T06:15:55;5.18;;;2.90;;
46391;SDS011;32098;49.448;7.904;2023-05-29T06:18:22;5.53;;;3.13;;
46391;SDS011;32098;49.448;7.904;2023-05-29T06:20:49;6.40;;;3.13;;
46391;SDS011;32098;49.448;7.904;2023-05-29T06:23:16;8.60;;;3.50;;
46391;SDS011;32098;49.448;7.904;2023-05-29T06:25:43;6.57;;;3.22;;
46391;SDS011;32098;49.448;7.904;2023-05-29T06:28:10;6.57;;;3.25;;
46391;SDS011;32098;49.448;7.904;2023-05-29T06:30:37;6.45;;;3.45;;
46391;SDS011;32098;49.448;7.904;2023-05-29T06:33:06;6.93;;;3.50;;
46391;SDS011;32098;49.448;7.904;2023-05-29T06:35:35;5.45;;;3.33;;
46391;SDS011;32098;49.448;7.904;2023-05-29T06:38:03;5.15;;;3.33;;
46391;SDS011;32098;49.448;7.904;2023-05-29T06:40:30;5.50;;;3.30;;
46391;SDS011;32098;49.448;7.904;2023-05-29T06:42:56;5.38;;;3.75;;
46391;SDS011;32098;49.448;7.904;2023-05-29T06:45:39;4.63;;;2.83;;
46391;SDS011;32098;49.448;7.904;2023-05-29T06:48:08;7.88;;;3.45;;
46391;SDS011;32098;49.448;7.904;2023-05-29T06:50:34;5.18;;;3.22;;
46391;SDS011;32098;49.448;7.904;2023-05-29T06:53:14;7.63;;;3.90;;
46391;SDS011;32098;49.448;7.904;2023-05-29T06:55:47;6.88;;;3.10;;
46391;SDS011;32098;49.448;7.904;2023-05-29T06:58:14;6.22;;;3.80;;
46391;SDS011;32098;49.448;7.904;2023-05-29T07:00:40;4.47;;;2.85;;
46391;SDS011;32098;49.448;7.904;2023-05-29T07:03:29;9.15;;;3.03;;
46391;SDS011;32098;49.448;7.904;2023-05-29T07:05:56;5.63;;;3.78;;
46391;SDS011;32098;49.448;7.904;2023-05-29T07:08:22;4.75;;;3.05;;
46391;SDS011;32098;49.448;7.904;2023-05-29T07:10:50;7.40;;;3.55;;
46391;SDS011;32098;49.448;7.904;2023-05-29T07:13:19;5.80;;;3.30;;
46391;SDS011;32098;49.448;7.904;2023-05-29T07:15:46;7.90;;;3.63;;
46391;SDS011;32098;49.448;7.904;2023-05-29T07:18:15;5.40;;;3.33;;
46391;SDS011;32098;49.448;7.904;2023-05-29T07:20:42;5.82;;;3.17;;
46391;SDS011;32098;49.448;7.904;2023-05-29T07:23:12;5.50;;;3.60;;
46391;SDS011;32098;49.448;7.904;2023-05-29T07:25:39;6.50;;;3.42;;
46391;SDS011;32098;49.448;7.904;2023-05-29T07:28:05;6.85;;;3.63;;
46391;SDS011;32098;49.448;7.904;2023-05-29T07:30:47;6.68;;;3.40;;
46391;SDS011;32098;49.448;7.904;2023-05-29T07:33:14;5.63;;;3.28;;
46391;SDS011;32098;49.448;7.904;2023-05-29T07:35:41;6.63;;;3.40;;
46391;SDS011;32098;49.448;7.904;2023-05-29T07:38:08;6.68;;;3.40;;
46391;SDS011;32098;49.448;7.904;2023-05-29T07:40:36;7.57;;;3.40;;
46391;SDS011;32098;49.448;7.904;2023-05-29T07:43:29;6.45;;;3.35;;
46391;SDS011;32098;49.448;7.904;2023-05-29T07:45:59;6.03;;;3.25;;
46391;SDS011;32098;49.448;7.904;2023-05-29T07:48:26;5.15;;;3.45;;
46391;SDS011;32098;49.448;7.904;2023-05-29T07:50:54;4.25;;;3.20;;
46391;SDS011;32098;49.448;7.904;2023-05-29T07:53:23;6.18;;;3.33;;
46391;SDS011;32098;49.448;7.904;2023-05-29T07:55:50;5.78;;;3.35;;
46391;SDS011;32098;49.448;7.904;2023-05-29T07:58:16;6.53;;;3.35;;
46391;SDS011;32098;49.448;7.904;2023-05-29T08:00:44;8.82;;;3.65;;
46391;SDS011;32098;49.448;7.904;2023-05-29T08:03:12;4.97;;;3.05;;
46391;SDS011;32098;49.448;7.904;2023-05-29T08:05:58;5.90;;;3.50;;
46391;SDS011;32098;49.448;7.904;2023-05-29T08:08:26;5.85;;;3.42;;
46391;SDS011;32098;49.448;7.904;2023-05-29T08:10:53;6.85;;;3.33;;
46391;SDS011;32098;49.448;7.904;2023-05-29T08:13:20;6.00;;;3.00;;
46391;SDS011;32098;49.448;7.904;2023-05-29T08:15:47;5.82;;;3.17;;
46391;SDS011;32098;49.448;7.904;2023-05-29T08:18:13;5.00;;;3.42;;
46391;SDS011;32098;49.448;7.904;2023-05-29T08:20:40;5.75;;;3.80;;
46391;SDS011;32098;49.448;7.904;2023-05-29T08:23:06;6.40;;;3.35;;
46391;SDS011;32098;49.448;7.904;2023-05-29T08:25:33;7.55;;;3.35;;
46391;SDS011;32098;49.448;7.904;2023-05-29T08:27:59;5.95;;;3.63;;
46391;SDS011;32098;49.448;7.904;2023-05-29T08:30:26;4.07;;;3.22;;
46391;SDS011;32098;49.448;7.904;2023-05-29T08:32:52;7.05;;;3.50;;
46391;SDS011;32098;49.448;7.904;2023-05-29T08:35:19;7.82;;;3.53;;
46391;SDS011;32098;49.448;7.904;2023-05-29T08:37:45;4.05;;;3.10;;
46391;SDS011;32098;49.448;7.904;2023-05-29T08:40:12;6.07;;;3.47;;
46391;SDS011;32098;49.448;7.904;2023-05-29T08:42:46;5.18;;;3.08;;
46391;SDS011;32098;49.448;7.904;2023-05-29T08:45:17;6.65;;;3.22;;
46391;SDS011;32098;49.448;7.904;2023-05-29T08:47:45;6.47;;;3.60;;
46391;SDS011;32098;49.448;7.904;2023-05-29T08:50:17;7.47;;;3.35;;
46391;SDS011;32098;49.448;7.904;2023-05-29T08:52:45;5.93;;;3.17;;
46391;SDS011;32098;49.448;7.904;2023-05-29T08:55:13;6.88;;;3.50;;
46391;SDS011;32098;49.448;7.904;2023-05-29T08:57:40;6.40;;;3.40;;
46391;SDS011;32098;49.448;7.904;2023-05-29T09:00:07;5.85;;;3.08;;
46391;SDS011;32098;49.448;7.904;2023-05-29T09:02:39;5.65;;;3.20;;
46391;SDS011;32098;49.448;7.904;2023-05-29T09:05:06;5.35;;;3.47;;
46391;SDS011;32098;49.448;7.904;2023-05-29T09:07:33;5.15;;;3.33;;
46391;SDS011;32098;49.448;7.904;2023-05-29T09:10:00;4.10;;;3.10;;
46391;SDS011;32098;49.448;7.904;2023-05-29T09:12:27;5.32;;;3.30;;
46391;SDS011;32098;49.448;7.904;2023-05-29T09:14:53;5.63;;;3.65;;
46391;SDS011;32098;49.448;7.904;2023-05-29T09:17:20;4.85;;;3.15;;
46391;SDS011;32098;49.448;7.904;2023-05-29T09:19:47;5.68;;;3.42;;
46391;SDS011;32098;49.448;7.904;2023-05-29T09:22:14;5.75;;;3.17;;
46391;SDS011;32098;49.448;7.904;2023-05-29T09:24:42;6.78;;;3.03;;
46391;SDS011;32098;49.448;7.904;2023-05-29T09:27:12;4.35;;;3.15;;
46391;SDS011;32098;49.448;7.904;2023-05-29T09:29:39;7.82;;;3.53;;
46391;SDS011;32098;49.448;7.904;2023-05-29T09:32:07;7.70;;;3.75;;
46391;SDS011;32098;49.448;7.904;2023-05-29T09:34:38;5.38;;;3.53;;
46391;SDS011;32098;49.448;7.904;2023-05-29T09:37:06;6.75;;;3.65;;
46391;SDS011;32098;49.448;7.904;2023-05-29T09:39:56;5.35;;;3.28;;
46391;SDS011;32098;49.448;7.904;2023-05-29T09:42:22;5.07;;;3.42;;
46391;SDS011;32098;49.448;7.904;2023-05-29T09:44:51;5.82;;;3.58;;
46391;SDS011;32098;49.448;7.904;2023-05-29T09:47:19;6.65;;;3.55;;
46391;SDS011;32098;49.448;7.904;2023-05-29T09:49:46;7.70;;;3.80;;
46391;SDS011;32098;49.448;7.904;2023-05-29T09:52:13;6.72;;;3.58;;
46391;SDS011;32098;49.448;7.904;2023-05-29T09:54:42;6.85;;;3.70;;
46391;SDS011;32098;49.448;7.904;2023-05-29T09:57:12;4.18;;;3.13;;
46391;SDS011;32098;49.448;7.904;2023-05-29T09:59:41;7.45;;;3.22;;
46391;SDS011;32098;49.448;7.904;2023-05-29T10:02:11;6.97;;;3.53;;
46391;SDS011;32098;49.448;7.904;2023-05-29T10:04:40;4.40;;;3.25;;
46391;SDS011;32098;49.448;7.904;2023-05-29T10:07:10;4.82;;;3.47;;
46391;SDS011;32098;49.448;7.904;2023-05-29T10:09:44;4.60;;;3.22;;
46391;SDS011;32098;49.448;7.904;2023-05-29T10:12:11;7.82;;;3.75;;
46391;SDS011;32098;49.448;7.904;2023-05-29T10:14:39;5.65;;;3.45;;
46391;SDS011;32098;49.448;7.904;2023-05-29T10:17:08;5.88;;;3.33;;
46391;SDS011;32098;49.448;7.904;2023-05-29T10:19:39;6.25;;;3.35;;
46391;SDS011;32098;49.448;7.904;2023-05-29T10:22:08;5.30;;;3.45;;
46391;SDS011;32098;49.448;7.904;2023-05-29T10:24:36;3.67;;;3.03;;
46391;SDS011;32098;49.448;7.904;2023-05-29T10:27:03;5.50;;;3.17;;
46391;SDS011;32098;49.448;7.904;2023-05-29T10:29:33;7.00;;;3.50;;
46391;SDS011;32098;49.448;7.904;2023-05-29T10:37:50;5.25;;;3.70;;
46391;SDS011;32098;49.448;7.904;2023-05-29T10:40:27;7.03;;;3.40;;
46391;SDS011;32098;49.448;7.904;2023-05-29T10:42:54;4.60;;;3.15;;
46391;SDS011;32098;49.448;7.904;2023-05-29T10:53:10;4.45;;;2.90;;
46391;SDS011;32098;49.448;7.904;2023-05-29T10:55:41;5.40;;;3.17;;
46391;SDS011;32098;49.448;7.904;2023-05-29T10:58:24;4.63;;;3.53;;
46391;SDS011;32098;49.448;7.904;2023-05-29T11:00:52;6.45;;;3.47;;
46391;SDS011;32098;49.448;7.904;2023-05-29T11:03:21;4.80;;;3.30;;
46391;SDS011;32098;49.448;7.904;2023-05-29T11:08:43;4.97;;;3.10;;
46391;SDS011;32098;49.448;7.904;2023-05-29T11:11:14;5.28;;;3.13;;
46391;SDS011;32098;49.448;7.904;2023-05-29T11:13:41;5.65;;;3.30;;
46391;SDS011;32098;49.448;7.904;2023-05-29T11:18:52;5.70;;;2.95;;
46391;SDS011;32098;49.448;7.904;2023-05-29T11:21:41;5.18;;;3.40;;
46391;SDS011;32098;49.448;7.904;2023-05-29T11:24:25;5.93;;;3.38;;
46391;SDS011;32098;49.448;7.904;2023-05-29T11:26:54;5.68;;;3.20;;
46391;SDS011;32098;49.448;7.904;2023-05-29T11:29:26;5.53;;;3.70;;
46391;SDS011;32098;49.448;7.904;2023-05-29T11:32:04;6.10;;;3.58;;
46391;SDS011;32098;49.448;7.904;2023-05-29T11:34:34;4.75;;;3.10;;
46391;SDS011;32098;49.448;7.904;2023-05-29T11:37:05;6.07;;;3.13;;
46391;SDS011;32098;49.448;7.904;2023-05-29T11:39:35;5.50;;;3.80;;
46391;SDS011;32098;49.448;7.904;2023-05-29T11:42:02;4.97;;;3.33;;
46391;SDS011;32098;49.448;7.904;2023-05-29T11:44:30;5.10;;;3.38;;
46391;SDS011;32098;49.448;7.904;2023-05-29T11:47:03;5.35;;;3.38;;
46391;SDS011;32098;49.448;7.904;2023-05-29T11:49:31;6.07;;;3.58;;
46391;SDS011;32098;49.448;7.904;2023-05-29T11:52:13;6.22;;;3.38;;
46391;SDS011;32098;49.448;7.904;2023-05-29T11:54:43;5.55;;;3.30;;
46391;SDS011;32098;49.448;7.904;2023-05-29T11:57:18;4.07;;;3.17;;
46391;SDS011;32098;49.448;7.904;2023-05-29T11:59:46;4.72;;;3.30;;
46391;SDS011;32098;49.448;7.904;2023-05-29T12:02:13;4.18;;;3.25;;
46391;SDS011;32098;49.448;7.904;2023-05-29T12:04:40;6.95;;;3.70;;
46391;SDS011;32098;49.448;7.904;2023-05-29T12:07:17;6.28;;;3.53;;
46391;SDS011;32098;49.448;7.904;2023-05-29T12:09:46;5.22;;;3.25;;
46391;SDS011;32098;49.448;7.904;2023-05-29T12:12:14;6.85;;;3.40;;
46391;SDS011;32098;49.448;7.904;2023-05-29T12:14:41;5.72;;;3.50;;
46391;SDS011;32098;49.448;7.904;2023-05-29T12:17:07;6.75;;;3.40;;
46391;SDS011;32098;49.448;7.904;2023-05-29T12:19:35;5.10;;;3.35;;
46391;SDS011;32098;49.448;7.904;2023-05-29T12:22:02;7.65;;;3.72;;
46391;SDS011;32098;49.448;7.904;2023-05-29T12:24:28;5.20;;;3.30;;
46391;SDS011;32098;49.448;7.904;2023-05-29T12:27:07;5.00;;;3.03;;
46391;SDS011;32098;49.448;7.904;2023-05-29T12:29:35;4.93;;;3.70;;
46391;SDS011;32098;49.448;7.904;2023-05-29T12:32:01;4.45;;;3.28;;
46391;SDS011;32098;49.448;7.904;2023-05-29T12:34:33;5.43;;;3.63;;
46391;SDS011;32098;49.448;7.904;2023-05-29T12:37:06;5.50;;;3.33;;
46391;SDS011;32098;49.448;7.904;2023-05-29T12:39:40;7.07;;;3.55;;
46391;SDS011;32098;49.448;7.904;2023-05-29T12:42:07;4.55;;;3.13;;
46391;SDS011;32098;49.448;7.904;2023-05-29T12:44:34;5.93;;;3.53;;
46391;SDS011;32098;49.448;7.904;2023-05-29T12:47:00;6.15;;;2.85;;
46391;SDS011;32098;49.448;7.904;2023-05-29T12:49:27;4.25;;;2.95;;
46391;SDS011;32098;49.448;7.904;2023-05-29T12:51:55;5.95;;;3.22;;
46391;SDS011;32098;49.448;7.904;2023-05-29T12:54:31;6.20;;;3.70;;
46391;SDS011;32098;49.448;7.904;2023-05-29T12:56:57;5.05;;;3.47;;
46391;SDS011;32098;49.448;7.904;2023-05-29T12:59:27;5.40;;;3.30;;
46391;SDS011;32098;49.448;7.904;2023-05-29T13:01:53;6.60;;;3.25;;
46391;SDS011;32098;49.448;7.904;2023-05-29T13:04:20;6.10;;;3.25;;
46391;SDS011;32098;49.448;7.904;2023-05-29T13:06:46;5.47;;;3.42;;
46391;SDS011;32098;49.448;7.904;2023-05-29T13:09:13;3.83;;;3.20;;
46391;SDS011;32098;49.448;7.904;2023-05-29T13:11:40;6.40;;;3.05;;
46391;SDS011;32098;49.448;7.904;2023-05-29T13:14:07;5.22;;;3.13;;
46391;SDS011;32098;49.448;7.904;2023-05-29T13:16:33;4.00;;;2.80;;
46391;SDS011;32098;49.448;7.904;2023-05-29T13:19:01;5.10;;;3.35;;
46391;SDS011;32098;49.448;7.904;2023-05-29T13:21:28;4.72;;;3.28;;
46391;SDS011;32098;49.448;7.904;2023-05-29T13:23:54;6.32;;;3.35;;
46391;SDS011;32098;49.448;7.904;2023-05-29T13:26:21;6.10;;;3.65;;
46391;SDS011;32098;49.448;7.904;2023-05-29T13:28:48;6.63;;;3.40;;
46391;SDS011;32098;49.448;7.904;2023-05-29T13:31:18;6.40;;;3.58;;
46391;SDS011;32098;49.448;7.904;2023-05-29T13:33:47;4.18;;;3.10;;
46391;SDS011;32098;49.448;7.904;2023-05-29T13:36:14;7.32;;;3.45;;
46391;SDS011;32098;49.448;7.904;2023-05-29T13:38:40;5.45;;;3.30;;
46391;SDS011;32098;49.448;7.904;2023-05-29T13:41:06;4.88;;;3.22;;
46391;SDS011;32098;49.448;7.904;2023-05-29T13:43:33;4.28;;;3.08;;
46391;SDS011;32098;49.448;7.904;2023-05-29T13:46:10;5.88;;;3.20;;
46391;SDS011;32098;49.448;7.904;2023-05-29T13:48:37;6.13;;;3.38;;
46391;SDS011;32098;49.448;7.904;2023-05-29T13:51:03;3.75;;;2.65;;
46391;SDS011;32098;49.448;7.904;2023-05-29T13:53:30;5.32;;;2.83;;
46391;SDS011;32098;49.448;7.904;2023-05-29T13:55:56;4.72;;;2.92;;
46391;SDS011;32098;49.448;7.904;2023-05-29T13:58:23;6.05;;;3.03;;
46391;SDS011;32098;49.448;7.904;2023-05-29T14:00:49;5.40;;;3.08;;
46391;SDS011;32098;49.448;7.904;2023-05-29T14:03:16;4.72;;;3.33;;
46391;SDS011;32098;49.448;7.904;2023-05-29T14:05:44;3.33;;;3.03;;
46391;SDS011;32098;49.448;7.904;2023-05-29T14:08:10;6.07;;;3.35;;
46391;SDS011;32098;49.448;7.904;2023-05-29T14:10:37;4.15;;;3.10;;
46391;SDS011;32098;49.448;7.904;2023-05-29T14:13:03;4.72;;;3.00;;
46391;SDS011;32098;49.448;7.904;2023-05-29T14:15:29;5.35;;;3.03;;
46391;SDS011;32098;49.448;7.904;2023-05-29T14:17:56;5.85;;;3.20;;
46391;SDS011;32098;49.448;7.904;2023-05-29T14:20:23;3.78;;;3.00;;
46391;SDS011;32098;49.448;7.904;2023-05-29T14:22:50;6.63;;;3.40;;
46391;SDS011;32098;49.448;7.904;2023-05-29T14:25:17;5.32;;;3.03;;
46391;SDS011;32098;49.448;7.904;2023-05-29T14:27:43;6.05;;;3.28;;
46391;SDS011;32098;49.448;7.904;2023-05-29T14:30:10;4.43;;;2.90;;
46391;SDS011;32098;49.448;7.904;2023-05-29T14:32:37;4.05;;;2.78;;
46391;SDS011;32098;49.448;7.904;2023-05-29T14:35:04;4.68;;;3.15;;
46391;SDS011;32098;49.448;7.904;2023-05-29T14:37:31;5.15;;;3.50;;
46391;SDS011;32098;49.448;7.904;2023-05-29T14:39:57;5.78;;;3.17;;
46391;SDS011;32098;49.448;7.904;2023-05-29T14:42:24;5.97;;;3.53;;
46391;SDS011;32098;49.448;7.904;2023-05-29T14:44:50;4.28;;;3.13;;
46391;SDS011;32098;49.448;7.904;2023-05-29T14:47:17;6.55;;;3.35;;
46391;SDS011;32098;49.448;7.904;2023-05-29T14:49:45;5.43;;;3.28;;
46391;SDS011;32098;49.448;7.904;2023-05-29T14:52:11;5.25;;;3.17;;
46391;SDS011;32098;49.448;7.904;2023-05-29T14:54:38;6.18;;;3.55;;
46391;SDS011;32098;49.448;7.904;2023-05-29T14:57:04;5.28;;;3.17;;
46391;SDS011;32098;49.448;7.904;2023-05-29T14:59:31;5.63;;;3.33;;
46391;SDS011;32098;49.448;7.904;2023-05-29T15:01:58;5.25;;;3.03;;
46391;SDS011;32098;49.448;7.904;2023-05-29T15:04:26;9.95;;;3.85;;
46391;SDS011;32098;49.448;7.904;2023-05-29T15:06:53;5.65;;;3.53;;
46391;SDS011;32098;49.448;7.904;2023-05-29T15:09:31;5.53;;;3.08;;
46391;SDS011;32098;49.448;7.904;2023-05-29T15:11:58;4.78;;;2.95;;
46391;SDS011;32098;49.448;7.904;2023-05-29T15:14:24;6.60;;;3.42;;
46391;SDS011;32098;49.448;7.904;2023-05-29T15:16:50;5.32;;;3.60;;
46391;SDS011;32098;49.448;7.904;2023-05-29T15:19:17;4.55;;;2.90;;
46391;SDS011;32098;49.448;7.904;2023-05-29T15:21:44;5.38;;;3.38;;
46391;SDS011;32098;49.448;7.904;2023-05-29T15:24:10;4.63;;;3.50;;
46391;SDS011;32098;49.448;7.904;2023-05-29T15:26:37;4.45;;;3.17;;